Aérodrome :
LOGIN :

S'inscrire | Disclaimer

   EN    FR    IT 

 










Légende :    VFR   VFR Marginal   IFR   IFR Intensif   IFR Très Intensif
Visi : 
Plafond : 
>= 8 km
>= 3000ft
5 à 8 km
1000 à 3000 ft
1500m à 5 km
500 à 1000 ft
800 à 1500m
200 à 500 ft
< 800m
< 200 ft
Symboles :   Orages  Brouillard  Fortes neiges  Fortes précipitations  Vent > 20 kt
SIGMETs :   Divers  Orages  Givrage  Turbulence  Onde Orograph.  Cendres Volcan.







- Altitude de l'aérodrome : 313 ft
- Code IATA : LEH
- Voir les cartes d'approche


LFOH - Le Havre Octeville

DERNIER METAR :
  • 180730Z AUTO 14004KT 8000 // NSC 06/05 Q1017

METARs EXPIRÉS :
  • 180700Z AUTO 14004KT 8000 // NSC 06/05 Q1017
  • 180630Z AUTO 16005KT 8000 // NSC 07/05 Q1017
  • 180600Z AUTO 16005KT 9000 // NSC 07/05 Q1017
  • 180530Z AUTO 16004KT 9999 // NSC 07/05 Q1017
  • 180500Z AUTO 16003KT 9999 // NSC 06/05 Q1017

TAF TAF LFOH
Valide du 18 à 06h jusqu'au 19 à 06h UTC


180500Z 1806/1906 17007KT CAVOK
BECMG 1813/1816 24010KT BKN013
TEMPO 1816/1819 3000 RA BKN007
BECMG 1819/1821 BKN020
PROB30
TEMPO 1902/1906 BKN003
ATIS : +33 2 35 54 64 93
Pas de NOTAMs connus pour ce terrain.



MET'MAP, la Météo Aéronautique d'un coup d'oeil ! - Copyright ORBIFLY Décembre 2007 - Disclaimer

ORBIFLY MET'MAP TEAM :

Programmation & Développement : Alexandra Zaïnal
Conception & Développement : Baudouin d'Aumeries
Co-Programmation & Développement : Marc-Olivier Méhu
Soutien technique & logistique : Manuel Goepfert

Contact : metmap@orbifly.com




SOURCES & CREDITS :

   NOAA